Impacts TAF Board
For situational awareness. Not to be used for flight planning purposes.
IDs:

KCVG - Cincinnati Intl, KY, US

Issued at 0257 UTC 21 Sep 2018
Updated at 0503 UTC 21 Sep 2018
Potential Impact None Slight Moderate High
Time<<22/06Z 22/07Z 22/08Z 22/09Z 22/10Z 22/11Z 22/12Z 22/13Z 22/14Z 22/15Z 22/16Z 22/17Z 22/18Z
Type
VIS
CIG
Cover
FltCat
WX
WDir
WSpd
WGst
Raw TAF
KCVG 210257Z 2103/2206 19007KT P6SM SKC
  FM211300 22013G22KT P6SM SCT050
  FM212100 23013G23KT P6SM VCTS BKN050CB
  FM220000 32011KT P6SM VCSH BKN040


METAR Board
Radar Display
Forecast Discussion
For situational awareness. Not to be used for flight planning purposes.